Time;durP1;ratioP1;P1;durP2;ratioP2;P2;SDS_P1;SDS_P2;PMS_P1;PMS_P2;Temp;Humidity;BMP_temperature;BMP_pressure;BME280_temperature;BME280_humidity;BME280_pressure;Samples;Min_cycle;Max_cycle;Signal;HPM_P1;HPM_P2
2021/10/10 00:01:17;;;;;;;38.72;23.02;;;256.30;2252.80;;;;;;4863527;29;20089;-55
2021/10/10 00:03:43;;;;;;;27.42;18.63;;;256.30;2252.80;;;;;;4863963;29;20035;-55
2021/10/10 00:06:09;;;;;;;27.83;16.50;;;256.30;2252.80;;;;;;4863347;29;20221;-55
2021/10/10 00:08:35;;;;;;;25.98;15.82;;;256.10;2252.80;;;;;;4863658;29;20206;-55
2021/10/10 00:11:01;;;;;;;21.92;15.18;;;256.10;2252.80;;;;;;4863506;29;20047;-55
2021/10/10 00:13:26;;;;;;;22.05;14.98;;;256.20;2252.80;;;;;;4863345;29;20032;-53
2021/10/10 00:15:52;;;;;;;24.20;17.58;;;256.00;2252.80;;;;;;4863349;29;20480;-56
2021/10/10 00:18:18;;;;;;;21.45;13.85;;;256.00;2252.80;;;;;;4863353;29;20033;-56
2021/10/10 00:20:44;;;;;;;25.48;16.80;;;256.00;2252.80;;;;;;4863687;29;20404;-56
2021/10/10 00:23:10;;;;;;;23.30;17.15;;;256.20;2252.80;;;;;;4863181;29;20097;-55
2021/10/10 00:25:36;;;;;;;21.02;15.60;;;256.10;2252.80;;;;;;4863323;29;20034;-55
2021/10/10 00:28:01;;;;;;;24.27;14.68;;;256.10;2252.80;;;;;;4863473;29;20029;-57
2021/10/10 00:30:27;;;;;;;21.98;14.60;;;256.20;2252.80;;;;;;4863015;29;20044;-55
2021/10/10 00:32:53;;;;;;;18.30;12.52;;;256.00;2252.80;;;;;;4861164;29;20136;-56
2021/10/10 00:35:19;;;;;;;21.60;15.38;;;231.30;2252.80;;;;;;4860498;29;20041;-55
2021/10/10 00:37:45;;;;;;;21.00;14.73;;;256.00;2252.80;;;;;;4860755;29;20381;-54
2021/10/10 00:40:12;;;;;;;33.38;21.48;;;231.30;2252.80;;;;;;4860699;29;20034;-53
2021/10/10 00:42:39;;;;;;;21.30;16.45;;;256.10;2252.80;;;;;;4860028;29;20029;-56
2021/10/10 00:45:05;;;;;;;28.05;17.10;;;256.20;2252.80;;;;;;4860238;29;20479;-56
2021/10/10 00:47:31;;;;;;;18.77;12.98;;;256.20;2252.80;;;;;;4860395;29;20033;-55
2021/10/10 00:49:57;;;;;;;20.42;13.57;;;256.10;2252.80;;;;;;4860133;29;20041;-55
2021/10/10 00:52:23;;;;;;;16.05;12.18;;;256.00;2252.80;;;;;;4860327;29;20109;-55
2021/10/10 00:54:49;;;;;;;23.80;16.35;;;256.10;2252.80;;;;;;4859931;29;20034;-54
2021/10/10 00:57:18;;;;;;;18.10;13.48;;;256.10;2252.80;;;;;;4860141;29;20085;-55
2021/10/10 00:59:46;;;;;;;20.35;12.43;;;256.00;2252.80;;;;;;4860158;29;20362;-54
2021/10/10 01:02:12;;;;;;;22.15;13.35;;;256.00;2252.80;;;;;;4859742;29;20116;-55
2021/10/10 01:04:40;;;;;;;20.17;12.85;;;256.10;2252.80;;;;;;4859527;29;20038;-56
2021/10/10 01:07:06;;;;;;;29.85;15.75;;;256.10;2252.80;;;;;;4859814;29;20025;-55
2021/10/10 01:09:36;;;;;;;28.33;17.33;;;256.20;2252.80;;;;;;4859970;29;20502;-54
2021/10/10 01:12:03;;;;;;;31.23;15.45;;;256.00;2252.80;;;;;;4859805;29;20465;-54
2021/10/10 01:14:29;;;;;;;18.17;12.77;;;256.10;2252.80;;;;;;4859594;29;20037;-56
2021/10/10 01:16:55;;;;;;;19.52;12.95;;;256.00;2252.80;;;;;;4859756;29;20448;-55
2021/10/10 01:19:21;;;;;;;19.50;12.65;;;231.20;2252.80;;;;;;4859752;29;20033;-55
2021/10/10 01:21:47;;;;;;;21.40;14.55;;;256.00;2252.80;;;;;;4859683;29;20038;-55
2021/10/10 01:24:13;;;;;;;21.70;13.63;;;231.30;2252.80;;;;;;4859629;29;20461;-57
2021/10/10 01:26:38;;;;;;;22.88;13.70;;;231.30;2252.80;;;;;;4859536;29;20034;-55
2021/10/10 01:29:04;;;;;;;23.77;14.38;;;231.20;2252.80;;;;;;4859502;29;20037;-53
2021/10/10 01:31:30;;;;;;;23.88;14.55;;;256.00;2252.80;;;;;;4859135;29;20061;-55
2021/10/10 01:33:56;;;;;;;19.50;13.30;;;256.10;2252.80;;;;;;4859672;29;20150;-53
2021/10/10 01:36:21;;;;;;;24.52;15.05;;;231.30;2252.80;;;;;;4859774;29;20093;-55
2021/10/10 01:38:47;;;;;;;23.92;14.68;;;256.10;2252.80;;;;;;4859401;29;20125;-55
2021/10/10 01:41:13;;;;;;;23.60;14.43;;;256.00;2252.80;;;;;;4859553;29;20036;-55
2021/10/10 01:43:40;;;;;;;19.35;13.00;;;256.00;2252.80;;;;;;4859051;29;20025;-55
2021/10/10 01:46:06;;;;;;;23.48;15.82;;;256.00;2252.80;;;;;;4858945;29;20112;-54
2021/10/10 01:48:34;;;;;;;24.70;16.50;;;256.10;2252.80;;;;;;4859664;29;20511;-54
2021/10/10 01:51:00;;;;;;;20.92;13.48;;;256.00;2252.80;;;;;;4858939;29;20469;-56
2021/10/10 01:53:26;;;;;;;25.92;16.30;;;256.00;2252.80;;;;;;4859043;29;20465;-55
2021/10/10 01:55:52;;;;;;;34.20;18.30;;;256.10;2252.80;;;;;;4859090;29;20120;-54
2021/10/10 01:58:17;;;;;;;32.58;19.60;;;256.20;2252.80;;;;;;4858914;29;20105;-55
2021/10/10 02:00:43;;;;;;;35.25;18.88;;;256.10;2252.80;;;;;;4858971;29;20033;-56
2021/10/10 02:03:09;;;;;;;23.67;16.30;;;256.10;2252.80;;;;;;4858849;29;20037;-55
2021/10/10 02:05:34;;;;;;;26.25;16.80;;;231.30;2252.80;;;;;;4859072;29;20080;-55
2021/10/10 02:08:00;;;;;;;28.83;18.90;;;256.10;2252.80;;;;;;4858743;29;20429;-54
2021/10/10 02:10:26;;;;;;;24.35;18.02;;;256.10;2252.80;;;;;;4858660;29;20030;-55
2021/10/10 02:12:52;;;;;;;25.20;16.10;;;256.20;2252.80;;;;;;4858819;29;20029;-55
2021/10/10 02:15:18;;;;;;;26.58;17.55;;;256.20;2252.80;;;;;;4858460;29;20408;-55
2021/10/10 02:17:43;;;;;;;19.45;14.98;;;256.20;2252.80;;;;;;4858752;29;20033;-57
2021/10/10 02:20:10;;;;;;;30.08;17.23;;;256.00;2252.80;;;;;;4858338;29;20037;-55
2021/10/10 02:22:36;;;;;;;27.85;17.92;;;231.30;2252.80;;;;;;4858385;29;20061;-55
2021/10/10 02:25:03;;;;;;;35.35;18.85;;;256.20;2252.80;;;;;;4858518;29;20122;-55
2021/10/10 02:27:29;;;;;;;33.90;21.98;;;256.20;2252.80;;;;;;4858398;29;20073;-55
2021/10/10 02:29:55;;;;;;;25.02;16.73;;;231.30;2252.80;;;;;;4858503;29;20069;-56
2021/10/10 02:32:20;;;;;;;27.42;16.85;;;231.30;2252.80;;;;;;4858408;29;20089;-55
2021/10/10 02:34:46;;;;;;;33.08;20.23;;;256.10;2252.80;;;;;;4858791;29;20041;-57
2021/10/10 02:37:12;;;;;;;29.80;20.13;;;256.00;2252.80;;;;;;4858398;29;20540;-54
2021/10/10 02:39:38;;;;;;;28.02;19.92;;;256.00;2252.80;;;;;;4858469;29;20124;-55
2021/10/10 02:42:04;;;;;;;25.08;18.13;;;256.00;2252.80;;;;;;4858414;29;20029;-55
2021/10/10 02:44:30;;;;;;;34.75;20.15;;;231.30;2252.80;;;;;;4858354;29;20060;-55
2021/10/10 02:46:57;;;;;;;35.40;22.10;;;231.30;2252.80;;;;;;4858168;29;20556;-55
2021/10/10 02:49:23;;;;;;;25.42;18.13;;;256.10;2252.80;;;;;;4858096;29;20417;-54
2021/10/10 02:51:49;;;;;;;23.02;16.60;;;256.20;2252.80;;;;;;4858121;29;20041;-60
2021/10/10 02:54:14;;;;;;;24.60;18.00;;;256.20;2252.80;;;;;;4858389;29;20041;-55
2021/10/10 02:56:40;;;;;;;33.63;20.77;;;256.10;2252.80;;;;;;4857417;29;20038;-54
2021/10/10 02:59:06;;;;;;;28.90;20.08;;;256.10;2252.80;;;;;;4857908;29;20492;-56
2021/10/10 03:01:32;;;;;;;29.88;21.13;;;256.30;2252.80;;;;;;4858060;29;20040;-55
2021/10/10 03:03:59;;;;;;;26.38;19.98;;;256.10;2252.80;;;;;;4857858;29;20499;-55
2021/10/10 03:06:24;;;;;;;40.40;26.95;;;256.00;2252.80;;;;;;4858061;29;20033;-57
2021/10/10 03:08:50;;;;;;;35.90;23.92;;;256.10;2252.80;;;;;;4857859;29;20414;-54
2021/10/10 03:11:16;;;;;;;30.30;21.90;;;231.30;2252.80;;;;;;4858009;29;20072;-55
2021/10/10 03:13:41;;;;;;;34.72;22.40;;;231.20;2252.80;;;;;;4857752;29;20106;-54
2021/10/10 03:16:07;;;;;;;25.48;18.98;;;231.20;2252.80;;;;;;4857710;29;20102;-54
2021/10/10 03:18:33;;;;;;;27.10;18.58;;;231.30;2252.80;;;;;;4857813;29;20090;-54
2021/10/10 03:20:59;;;;;;;25.85;17.27;;;231.30;2252.80;;;;;;4857623;29;20041;-55
2021/10/10 03:23:24;;;;;;;28.85;17.60;;;256.10;2252.80;;;;;;4856297;29;20038;-55
2021/10/10 03:25:50;;;;;;;33.15;19.05;;;231.30;2252.80;;;;;;4857686;29;20030;-55
2021/10/10 03:28:16;;;;;;;27.27;18.80;;;231.30;2252.80;;;;;;4857724;29;20033;-55
2021/10/10 03:30:41;;;;;;;30.92;20.15;;;256.10;2252.80;;;;;;4857584;29;20117;-56
2021/10/10 03:33:08;;;;;;;43.53;24.92;;;256.30;2252.80;;;;;;4857546;29;20045;-56
2021/10/10 03:35:34;;;;;;;28.88;19.75;;;256.30;2252.80;;;;;;4857687;29;20050;-54
2021/10/10 03:38:01;;;;;;;27.73;19.58;;;256.30;2252.80;;;;;;4857789;29;20527;-54
2021/10/10 03:40:28;;;;;;;32.08;20.77;;;256.20;2252.80;;;;;;4857500;29;20029;-55
2021/10/10 03:42:53;;;;;;;31.35;20.08;;;256.30;2252.80;;;;;;4857679;29;20026;-55
2021/10/10 03:45:19;;;;;;;27.27;18.63;;;256.30;2252.80;;;;;;4857373;29;20037;-55
2021/10/10 03:47:45;;;;;;;28.33;18.73;;;256.40;2252.80;;;;;;4857807;29;20459;-55
2021/10/10 03:50:11;;;;;;;25.58;16.45;;;256.30;2252.80;;;;;;4857565;29;20026;-55
2021/10/10 03:52:36;;;;;;;26.80;18.20;;;256.10;2252.80;;;;;;4857746;29;20037;-55
2021/10/10 03:57:48;;;;;;;25.75;17.42;;;256.20;2252.80;;;;;;4857560;29;20048;-55
2021/10/10 04:00:14;;;;;;;26.60;18.75;;;256.00;2252.80;;;;;;4857575;29;20388;-53
2021/10/10 04:02:41;;;;;;;25.77;17.52;;;256.00;2252.80;;;;;;4857251;29;20124;-55
2021/10/10 04:05:19;;;;;;;30.10;21.60;;;256.20;2252.80;;;;;;4857475;29;20115;-54
2021/10/10 04:07:45;;;;;;;28.30;19.35;;;256.20;2252.80;;;;;;4858981;29;20399;-54
2021/10/10 04:10:11;;;;;;;23.02;15.35;;;256.20;2252.80;;;;;;4861183;29;20025;-55
2021/10/10 04:12:36;;;;;;;20.48;15.65;;;256.40;2252.80;;;;;;4860523;29;20556;-54
2021/10/10 04:15:03;;;;;;;22.08;16.73;;;256.50;2252.80;;;;;;4860987;29;20057;-54
2021/10/10 04:17:29;;;;;;;23.13;16.55;;;256.40;2252.80;;;;;;4860650;29;20044;-54
2021/10/10 04:19:54;;;;;;;40.15;26.23;;;256.50;2252.80;;;;;;4860705;29;20033;-53
2021/10/10 04:22:20;;;;;;;21.30;16.17;;;256.30;2252.80;;;;;;4860541;29;20081;-55
2021/10/10 04:24:46;;;;;;;26.95;16.75;;;256.40;2252.80;;;;;;4860629;29;20104;-55
2021/10/10 04:27:12;;;;;;;22.65;17.40;;;256.40;2252.80;;;;;;4860668;29;20036;-54
2021/10/10 04:29:38;;;;;;;24.27;16.23;;;256.40;2252.80;;;;;;4860493;29;20117;-55
2021/10/10 04:32:04;;;;;;;18.58;13.70;;;256.40;2252.80;;;;;;4860531;29;20531;-54
2021/10/10 04:34:29;;;;;;;27.08;17.42;;;256.40;2252.80;;;;;;4860645;29;20057;-54
2021/10/10 04:36:55;;;;;;;22.00;14.85;;;256.40;2252.80;;;;;;4860538;29;20821;-55
2021/10/10 04:39:21;;;;;;;19.80;15.15;;;256.30;2252.80;;;;;;4860738;29;20445;-55
2021/10/10 04:41:46;;;;;;;20.52;16.13;;;256.40;2252.80;;;;;;4860542;29;20047;-55
2021/10/10 04:44:12;;;;;;;19.00;14.55;;;256.40;2252.80;;;;;;4860327;29;20036;-55
2021/10/10 04:46:38;;;;;;;21.35;16.48;;;256.30;2252.80;;;;;;4858743;29;20128;-55
2021/10/10 04:49:04;;;;;;;21.52;15.68;;;256.30;2252.80;;;;;;4860232;29;20067;-56
2021/10/10 04:51:30;;;;;;;25.38;16.42;;;256.20;2252.80;;;;;;4860155;29;20362;-56
2021/10/10 04:53:56;;;;;;;22.35;15.95;;;256.20;2252.80;;;;;;4860347;29;20044;-56
2021/10/10 04:56:22;;;;;;;23.98;17.38;;;256.20;2252.80;;;;;;4860155;29;20040;-55
2021/10/10 04:58:48;;;;;;;25.27;16.58;;;256.20;2252.80;;;;;;4859938;29;20473;-56
2021/10/10 05:01:13;;;;;;;25.00;16.55;;;256.20;2252.80;;;;;;4860081;29;20033;-57
2021/10/10 05:03:39;;;;;;;37.53;27.25;;;256.20;2252.80;;;;;;4859821;29;20370;-56
2021/10/10 05:06:05;;;;;;;39.13;30.75;;;256.20;2252.80;;;;;;4860214;29;20492;-55
2021/10/10 05:08:31;;;;;;;29.98;21.98;;;256.10;2252.80;;;;;;4859869;29;20382;-55
2021/10/10 05:10:56;;;;;;;41.38;30.15;;;256.10;2252.80;;;;;;4859845;29;20078;-55
2021/10/10 05:13:22;;;;;;;42.92;33.47;;;256.20;2252.80;;;;;;4859605;29;20026;-55
2021/10/10 05:15:48;;;;;;;39.75;28.08;;;256.30;2252.80;;;;;;4859480;29;20041;-57
2021/10/10 05:18:13;;;;;;;32.70;24.50;;;256.40;2252.80;;;;;;4859889;29;20473;-55
2021/10/10 05:20:39;;;;;;;36.05;23.63;;;256.50;2252.80;;;;;;4858858;29;20029;-55
2021/10/10 05:23:05;;;;;;;31.23;21.13;;;256.40;2252.80;;;;;;4859657;29;20528;-56
2021/10/10 05:25:31;;;;;;;32.53;22.30;;;256.20;2252.80;;;;;;4859499;29;20081;-57
2021/10/10 05:27:56;;;;;;;35.00;23.73;;;256.20;2252.80;;;;;;4859224;29;20022;-56
2021/10/10 05:30:22;;;;;;;27.13;20.40;;;256.30;2252.80;;;;;;4859311;29;20037;-55
2021/10/10 05:32:48;;;;;;;29.42;22.60;;;256.50;2252.80;;;;;;4859226;29;20045;-55
2021/10/10 05:35:14;;;;;;;29.65;20.27;;;256.50;2252.80;;;;;;4859613;29;20185;-56
2021/10/10 05:37:39;;;;;;;32.17;22.23;;;256.60;2252.80;;;;;;4859593;29;20030;-58
2021/10/10 05:40:06;;;;;;;44.30;27.48;;;256.60;2252.80;;;;;;4859361;29;20392;-56
2021/10/10 05:42:32;;;;;;;36.42;26.45;;;256.30;2252.80;;;;;;4859314;29;20465;-55
2021/10/10 05:44:59;;;;;;;46.35;31.02;;;256.30;2252.80;;;;;;4859222;29;20041;-55
2021/10/10 05:47:25;;;;;;;39.20;27.30;;;256.30;2252.80;;;;;;4859193;29;20037;-55
2021/10/10 05:49:51;;;;;;;38.90;25.52;;;256.40;2252.80;;;;;;4859081;29;20029;-55
2021/10/10 05:52:22;;;;;;;54.53;33.50;;;256.50;2252.80;;;;;;4859018;29;20029;-55
2021/10/10 05:54:48;;;;;;;37.97;27.40;;;256.60;2252.80;;;;;;4858856;29;20025;-55
2021/10/10 05:57:17;;;;;;;47.95;32.05;;;256.40;2252.80;;;;;;4858960;29;20124;-59
2021/10/10 05:59:43;;;;;;;41.20;28.60;;;256.40;2252.80;;;;;;4858803;29;20040;-55
2021/10/10 06:02:08;;;;;;;40.08;27.73;;;256.30;2252.80;;;;;;4858984;29;20405;-55
2021/10/10 06:04:34;;;;;;;38.10;25.58;;;256.40;2252.80;;;;;;4858962;29;20030;-55
2021/10/10 06:07:00;;;;;;;30.77;23.10;;;256.50;2252.80;;;;;;4858872;29;20030;-55
2021/10/10 06:09:25;;;;;;;33.83;25.40;;;256.60;2252.80;;;;;;4858897;29;20385;-54
2021/10/10 06:11:51;;;;;;;44.28;31.38;;;256.70;2252.80;;;;;;4859017;29;20109;-55
2021/10/10 06:14:17;;;;;;;29.90;19.50;;;256.70;2252.80;;;;;;4858755;29;20093;-55
2021/10/10 06:16:43;;;;;;;26.30;21.60;;;256.40;2252.80;;;;;;4858810;29;20093;-58
2021/10/10 06:19:09;;;;;;;37.72;27.33;;;256.50;2252.80;;;;;;4858454;29;20120;-55
2021/10/10 06:21:35;;;;;;;36.00;25.60;;;256.40;2252.80;;;;;;4858775;29;20116;-57
2021/10/10 06:24:01;;;;;;;32.58;25.48;;;256.70;2252.80;;;;;;4858579;29;20026;-55
2021/10/10 06:26:26;;;;;;;38.75;31.27;;;256.60;2252.80;;;;;;4858372;29;20498;-55
2021/10/10 06:28:52;;;;;;;35.90;26.30;;;256.60;2252.80;;;;;;4858229;29;20033;-55
2021/10/10 06:31:18;;;;;;;36.45;26.10;;;256.50;2252.80;;;;;;4857335;29;20053;-56
2021/10/10 06:33:44;;;;;;;39.67;28.05;;;256.60;2252.80;;;;;;4858653;29;20026;-57
2021/10/10 06:36:10;;;;;;;25.75;18.27;;;256.60;2252.80;;;;;;4858220;29;20102;-57
2021/10/10 06:38:35;;;;;;;30.00;21.60;;;256.60;2252.80;;;;;;4858486;29;20030;-55
2021/10/10 06:41:01;;;;;;;31.73;23.70;;;256.40;2252.80;;;;;;4858525;29;20029;-55
2021/10/10 06:43:27;;;;;;;27.00;19.50;;;256.20;2252.80;;;;;;4858262;29;20074;-55
2021/10/10 06:45:53;;;;;;;35.88;26.05;;;256.20;2252.80;;;;;;4858359;29;20116;-55
2021/10/10 06:48:18;;;;;;;45.08;32.72;;;256.30;2252.80;;;;;;4858007;29;20021;-55
2021/10/10 06:50:44;;;;;;;42.63;33.22;;;256.40;2252.80;;;;;;4858338;29;20116;-55
2021/10/10 06:53:10;;;;;;;42.53;29.25;;;256.60;2252.80;;;;;;4858294;29;20117;-57
2021/10/10 06:55:35;;;;;;;39.95;30.77;;;256.60;2252.80;;;;;;4858237;29;20097;-55
2021/10/10 06:58:01;;;;;;;42.95;33.85;;;256.40;2252.80;;;;;;4858239;29;20541;-55
2021/10/10 07:00:27;;;;;;;48.72;35.67;;;256.70;2252.80;;;;;;4857688;29;20043;-56
2021/10/10 07:02:53;;;;;;;48.42;37.22;;;256.60;2252.80;;;;;;4858051;29;20078;-55
2021/10/10 07:05:19;;;;;;;53.17;40.30;;;256.60;2252.80;;;;;;4857749;29;20061;-56
2021/10/10 07:07:45;;;;;;;52.70;37.55;;;256.70;2252.80;;;;;;4857988;29;20499;-55
2021/10/10 07:10:11;;;;;;;41.30;33.05;;;256.50;2252.80;;;;;;4857727;29;20025;-56
2021/10/10 07:12:38;;;;;;;54.78;38.95;;;256.60;2252.80;;;;;;4857551;29;20709;-56
2021/10/10 07:15:07;;;;;;;63.90;46.70;;;256.60;2252.80;;;;;;4857687;29;20033;-57
2021/10/10 07:17:33;;;;;;;40.25;28.80;;;256.80;2252.80;;;;;;4857079;29;20029;-54
2021/10/10 07:22:29;;;;;;;56.60;44.10;;;256.60;2252.80;;;;;;4857801;29;20030;-55
2021/10/10 07:27:21;;;;;;;43.17;30.92;;;256.90;2252.80;;;;;;4857644;29;20154;-55
2021/10/10 07:29:48;;;;;;;44.88;33.42;;;256.80;2252.80;;;;;;4857161;29;20407;-60
2021/10/10 07:32:13;;;;;;;43.28;28.63;;;256.50;2252.80;;;;;;4857698;29;20132;-55
2021/10/10 07:34:39;;;;;;;37.15;28.08;;;256.50;2252.80;;;;;;4857360;29;20170;-57
2021/10/10 07:37:05;;;;;;;48.58;37.08;;;256.80;2252.80;;;;;;4857338;29;20042;-55
2021/10/10 07:39:31;;;;;;;45.10;36.90;;;256.90;2252.80;;;;;;4857438;29;20029;-55
2021/10/10 07:41:57;;;;;;;56.65;40.97;;;256.80;2252.80;;;;;;4857380;29;20029;-56
2021/10/10 07:44:26;;;;;;;58.10;39.13;;;256.90;2252.80;;;;;;4861502;29;20032;-57
2021/10/10 07:49:38;;;;;;;107.72;76.60;;;281.60;2278.40;;;;;;4786298;30;20054;-55
2021/10/10 07:52:04;;;;;;;46.60;36.47;;;281.60;2278.40;;;;;;4785734;29;20047;-56
2021/10/10 07:54:30;;;;;;;40.30;31.20;;;281.60;2278.40;;;;;;4786117;30;20078;-55
2021/10/10 07:56:56;;;;;;;51.35;30.02;;;281.60;2278.40;;;;;;4785971;30;20039;-55
2021/10/10 07:59:21;;;;;;;33.50;23.75;;;256.90;2252.80;;;;;;4786026;30;20126;-55
2021/10/10 08:01:47;;;;;;;44.78;31.25;;;256.80;2252.80;;;;;;4786068;30;20047;-55
2021/10/10 08:04:13;;;;;;;45.30;32.38;;;256.80;2252.80;;;;;;4786204;30;20442;-54
2021/10/10 08:06:38;;;;;;;118.00;84.35;;;281.60;2278.40;;;;;;4785878;30;20122;-55
2021/10/10 08:09:04;;;;;;;97.18;67.82;;;281.90;2278.40;;;;;;4786107;30;20463;-53
2021/10/10 08:11:30;;;;;;;73.80;52.53;;;282.00;2278.40;;;;;;4785736;30;20474;-55
2021/10/10 08:13:56;;;;;;;82.15;61.53;;;281.90;2278.40;;;;;;4785607;30;20043;-56
2021/10/10 08:16:21;;;;;;;78.10;57.30;;;281.70;2278.40;;;;;;4785984;30;20043;-55
2021/10/10 08:18:47;;;;;;;63.13;46.72;;;281.90;2278.40;;;;;;4785695;30;20038;-56
2021/10/10 08:21:13;;;;;;;60.15;46.40;;;281.70;2278.40;;;;;;4785751;30;20122;-55
2021/10/10 08:23:38;;;;;;;47.33;36.03;;;281.90;2278.40;;;;;;4785715;30;20031;-55
2021/10/10 08:26:04;;;;;;;57.80;42.15;;;281.90;2278.40;;;;;;4803639;29;20049;-55
2021/10/10 08:28:30;;;;;;;47.80;36.60;;;281.80;2278.40;;;;;;4860376;29;20030;-55
2021/10/10 08:30:56;;;;;;;41.15;28.10;;;281.70;2278.40;;;;;;4860006;29;20092;-56
2021/10/10 08:33:22;;;;;;;60.70;43.28;;;281.70;2278.40;;;;;;4860966;29;20049;-55
2021/10/10 08:35:49;;;;;;;52.25;35.65;;;281.70;2278.40;;;;;;4860577;29;20108;-56
2021/10/10 08:38:15;;;;;;;39.03;31.10;;;281.80;2278.40;;;;;;4860560;29;20036;-57
2021/10/10 08:40:42;;;;;;;51.15;35.33;;;281.80;2278.40;;;;;;4860502;29;20105;-55
2021/10/10 08:43:13;;;;;;;45.65;36.60;;;281.70;2278.40;;;;;;4860129;29;20026;-55
2021/10/10 08:45:41;;;;;;;43.58;30.98;;;281.60;2278.40;;;;;;4860389;29;20092;-56
2021/10/10 08:48:06;;;;;;;55.90;39.72;;;256.90;2252.80;;;;;;4860094;29;20040;-55
2021/10/10 08:50:33;;;;;;;64.65;40.38;;;281.60;2278.40;;;;;;4860312;29;20037;-58
2021/10/10 08:53:00;;;;;;;53.92;37.65;;;281.70;2278.40;;;;;;4862276;29;20061;-54
2021/10/10 08:55:28;;;;;;;58.15;40.55;;;281.60;2278.40;;;;;;4860364;29;20040;-56
2021/10/10 08:57:55;;;;;;;39.33;28.63;;;281.90;2278.40;;;;;;4878865;29;20029;-55
2021/10/10 09:00:29;;;;;;;57.10;34.83;;;282.20;2278.40;;;;;;4878517;29;20088;-52
2021/10/10 09:02:54;;;;;;;;;;;282.20;2278.40;;;;;;4879085;29;20041;-55
2021/10/10 09:05:20;;;;;;;44.40;29.83;;;282.00;2278.40;;;;;;4878334;29;19908;-55
2021/10/10 09:07:48;;;;;;;64.47;38.95;;;282.10;2278.40;;;;;;4878283;29;20077;-56
2021/10/10 09:10:31;;;;;;;47.55;30.77;;;282.00;2278.40;;;;;;4878612;29;20057;-56
2021/10/10 09:13:30;;;;;;;39.83;28.67;;;281.80;2278.40;;;;;;4878262;29;20112;-56
2021/10/10 09:15:56;;;;;;;41.75;28.00;;;281.80;2278.40;;;;;;4878020;29;20419;-56
2021/10/10 09:18:35;;;;;;;45.58;34.45;;;281.90;2278.40;;;;;;4878360;29;20027;-56
2021/10/10 09:21:19;;;;;;;45.13;31.83;;;281.80;2278.40;;;;;;4878408;29;20417;-56
2021/10/10 09:23:52;;;;;;;;;;;281.80;2278.40;;;;;;4878667;29;20037;-56
2021/10/10 09:26:19;;;;;;;56.95;39.50;;;281.90;2278.40;;;;;;4870539;29;19914;-55
2021/10/10 09:28:46;;;;;;;49.28;35.20;;;282.00;2278.40;;;;;;4878152;29;20041;-57
2021/10/10 09:31:13;;;;;;;36.50;27.52;;;281.80;2278.40;;;;;;4877787;29;20059;-58
2021/10/10 09:33:41;;;;;;;39.53;27.48;;;281.80;2278.40;;;;;;4877841;29;20381;-58
2021/10/10 09:36:15;;;;;;;48.42;33.80;;;281.90;2278.40;;;;;;4877759;29;20156;-55
2021/10/10 09:38:45;;;;;;;42.58;30.67;;;281.80;2278.40;;;;;;4877959;29;20376;-56
2021/10/10 09:44:08;;;;;;;55.72;36.17;;;282.00;2278.40;;;;;;4877896;29;20027;-57
2021/10/10 09:46:37;;;;;;;45.20;31.55;;;282.00;2278.40;;;;;;4877813;29;20078;-55
2021/10/10 09:49:25;;;;;;;40.85;29.17;;;282.00;2278.40;;;;;;4877801;29;20037;-55
2021/10/10 09:51:56;;;;;;;38.25;27.05;;;282.00;2278.40;;;;;;4877927;29;20033;-56
2021/10/10 09:54:23;;;;;;;43.67;28.35;;;282.10;2278.40;;;;;;4877937;29;20040;-55
2021/10/10 09:57:09;;;;;;;55.72;39.33;;;282.10;2278.40;;;;;;4877488;29;20045;-56
2021/10/10 09:59:35;;;;;;;69.20;46.67;;;282.20;2278.40;;;;;;4877420;29;20037;-56
2021/10/10 10:02:01;;;;;;;53.65;40.47;;;282.00;2278.40;;;;;;4877508;29;20047;-55
2021/10/10 10:04:27;;;;;;;62.40;39.58;;;282.30;2278.40;;;;;;4877333;29;20029;-57
2021/10/10 10:06:53;;;;;;;62.55;40.67;;;282.30;2278.40;;;;;;4877240;29;20035;-57
2021/10/10 10:09:19;;;;;;;63.47;43.95;;;282.50;2278.40;;;;;;4877287;29;20038;-55
2021/10/10 10:11:46;;;;;;;125.05;87.60;;;282.50;2278.40;;;;;;4877459;29;20029;-57
2021/10/10 10:14:18;;;;;;;109.45;81.30;;;282.20;2278.40;;;;;;4877494;29;20033;-58
2021/10/10 10:16:46;;;;;;;57.88;41.05;;;282.50;2278.40;;;;;;4877362;29;20048;-57
2021/10/10 10:19:22;;;;;;;46.08;31.83;;;282.40;2278.40;;;;;;4877165;29;20033;-57
2021/10/10 10:21:52;;;;;;;40.25;26.10;;;282.30;2278.40;;;;;;4876920;29;20112;-58
2021/10/10 10:24:19;;;;;;;77.07;49.72;;;282.30;2278.40;;;;;;4877173;29;20479;-56
2021/10/10 10:26:45;;;;;;;39.15;28.33;;;282.50;2278.40;;;;;;4877187;29;20110;-56
2021/10/10 10:29:24;;;;;;;36.25;27.13;;;282.30;2278.40;;;;;;4876886;29;20041;-56
2021/10/10 10:31:51;;;;;;;43.92;27.65;;;282.10;2278.40;;;;;;4876854;29;20507;-56
2021/10/10 10:34:25;;;;;;;40.72;29.40;;;282.00;2278.40;;;;;;4869530;29;20052;-56
2021/10/10 10:36:55;;;;;;;50.08;36.88;;;282.30;2278.40;;;;;;4877085;29;20068;-57
2021/10/10 10:39:48;;;;;;;60.75;44.25;;;282.00;2278.40;;;;;;4877072;29;20392;-58
2021/10/10 10:42:39;;;;;;;43.40;30.02;;;282.00;2278.40;;;;;;4877223;29;20064;-57
2021/10/10 10:45:33;;;;;;;122.57;86.72;;;282.00;2278.40;;;;;;4876768;29;20097;-56
2021/10/10 10:48:01;;;;;;;180.13;120.68;;;282.30;2278.40;;;;;;4876626;29;20429;-56
2021/10/10 10:50:39;;;;;;;67.57;44.50;;;282.40;2278.40;;;;;;4876648;29;20037;-56
2021/10/10 10:53:11;;;;;;;51.28;32.17;;;282.50;2278.40;;;;;;4876743;29;20021;-58
2021/10/10 10:55:42;;;;;;;42.97;29.23;;;282.50;2278.40;;;;;;4876167;29;20101;-56
2021/10/10 10:58:10;;;;;;;41.30;28.95;;;282.50;2278.40;;;;;;4876456;29;20028;-56
2021/10/10 11:00:50;;;;;;;33.17;23.50;;;282.20;2278.40;;;;;;4876208;29;20037;-54
2021/10/10 11:03:18;;;;;;;38.33;25.70;;;282.30;2278.40;;;;;;4876757;29;20377;-56
2021/10/10 11:05:52;;;;;;;32.65;24.58;;;282.50;2278.40;;;;;;4876757;29;20040;-56
2021/10/10 11:08:18;;;;;;;39.42;27.55;;;307.20;2304.00;;;;;;4876462;29;20116;-55
2021/10/10 11:11:15;;;;;;;64.22;35.97;;;307.20;2304.00;;;;;;4876658;29;20116;-55
2021/10/10 11:13:42;;;;;;;39.65;30.23;;;282.40;2278.40;;;;;;4871160;29;20497;-55
2021/10/10 11:16:32;;;;;;;65.85;38.15;;;282.40;2278.40;;;;;;4876229;29;20076;-56
2021/10/10 11:18:58;;;;;;;51.35;32.80;;;282.40;2278.40;;;;;;4800428;29;20144;-56
2021/10/10 11:21:38;;;;;;;52.40;35.13;;;282.30;2278.40;;;;;;4801032;29;20043;-56
2021/10/10 11:24:19;;;;;;;78.38;53.63;;;282.40;2278.40;;;;;;4800936;29;20047;-54
2021/10/10 11:26:45;;;;;;;45.13;30.25;;;282.40;2278.40;;;;;;4801147;29;20031;-56
2021/10/10 11:29:15;;;;;;;53.53;36.97;;;282.30;2278.40;;;;;;4800690;29;20182;-66
2021/10/10 11:31:42;;;;;;;76.68;49.38;;;282.30;2278.40;;;;;;4800786;29;20142;-57
2021/10/10 11:34:11;;;;;;;60.70;41.08;;;282.50;2278.40;;;;;;4800620;29;20070;-56
2021/10/10 11:36:46;;;;;;;60.17;43.80;;;282.40;2278.40;;;;;;4800593;29;20127;-56
2021/10/10 11:39:13;;;;;;;72.35;51.20;;;282.30;2278.40;;;;;;4800902;29;20362;-56
2021/10/10 11:41:43;;;;;;;66.57;44.35;;;282.50;2278.40;;;;;;4800598;29;20121;-56
2021/10/10 11:44:11;;;;;;;73.00;49.80;;;282.30;2278.40;;;;;;4800625;29;20092;-56
2021/10/10 11:46:38;;;;;;;63.40;45.13;;;282.50;2278.40;;;;;;4800706;29;20045;-56
2021/10/10 11:49:37;;;;;;;55.63;41.13;;;282.50;2278.40;;;;;;4800703;29;20545;-56
2021/10/10 11:52:21;;;;;;;64.35;42.25;;;282.20;2278.40;;;;;;4800804;29;20554;-55
2021/10/10 11:54:57;;;;;;;62.17;43.53;;;282.20;2278.40;;;;;;4802304;29;20041;-56
2021/10/10 11:57:26;;;;;;;50.85;34.38;;;282.30;2278.40;;;;;;4875855;29;20037;-56
2021/10/10 11:59:55;;;;;;;64.35;42.97;;;282.40;2278.40;;;;;;4875830;29;20100;-56
2021/10/10 12:02:22;;;;;;;50.55;39.15;;;282.50;2278.40;;;;;;4875835;29;20551;-55
2021/10/10 12:05:01;;;;;;;61.25;46.28;;;307.20;2304.00;;;;;;4873951;29;20029;-57
2021/10/10 12:07:29;;;;;;;38.60;26.27;;;307.30;2304.00;;;;;;4874158;29;20040;-54
2021/10/10 12:09:54;;;;;;;44.65;33.60;;;307.20;2304.00;;;;;;4874381;29;20040;-56
2021/10/10 12:12:20;;;;;;;48.45;36.67;;;282.50;2278.40;;;;;;4874187;29;20472;-55
2021/10/10 12:14:52;;;;;;;46.17;33.80;;;307.30;2304.00;;;;;;4874133;29;20048;-57